Lindenberg, Germany

11:29 PM CET on February 05, 2016 (GMT +0100)
Bootshaus | | Change Station
CLOSE
Current Station
Personal Weather Station
Location: Beeskow, BRANDENBURG
Elevation: 148 ft
Nearby Weather Stations

Elev 148 ft 52.17 °N, 14.25 °E | Updated 9 seconds ago

Mostly Cloudy
Mostly Cloudy
41.5 °F
Feels Like 42 °F
N
2.9
Wind Variable Wind from South
Gusts 4.9 mph

Today
High -- | Low -- °F
--% Chance of Precip.
Yesterday
High -- | Low -- °F
Precip. -- in
Pressure 30.12 in
Visibility 6.2 miles
Clouds Few 3200 ft
Mostly Cloudy 4900 ft
Windchill 42 °F
Dew Point 41 °F
Humidity 99%
Rainfall 0.00 in
Snow Depth Not available.
7:38 AM 4:56 PM
Waning Crescent, 9% visible
METAR EDDB 052220Z 20007KT 9999 FEW032 BKN049 05/04 Q1020 TEMPO 4000 DZ
Pressure 30.12 in
Visibility 6.2 miles
Clouds Few 3200 ft
Mostly Cloudy 4900 ft
Windchill 42 °F
Dew Point 41 °F
Humidity 99%
Rainfall 0.00 in
Snow Depth Not available.
7:38 AM 4:56 PM
Waning Crescent, 9% visible
METAR EDDB 052220Z 20007KT 9999 FEW032 BKN049 05/04 Q1020 TEMPO 4000 DZ

10-Day Weather Forecast

Almanac

Astronomy

Feb. 05, 2016 Rise Set
Actual Time
Civil Twilight
Nautical Twilight
Astronomical Twilight
Moon
Length of Visible Light
Length of Day
Tomorrow will be .
, % of the Moon is Illuminated

Today's Extremes

Country Highs Country Lows

Community

WunderPhotos

Upload Photos

1,890,878 photos uploaded!

WunderBlog® & News

Nearby

Air Quality

  Air Quality AQ Index Pollutant
Not available.

Snow Depth

Station Depth Elevation

Earthquake Activity

City Distance Mag. Time & Date
Minimum magnitude displayed is 2.5.

Coastal Water Temperatures

Place Temperature

Stations

Nearby Weather Stations

Station Location Temp. Windchill Dew Point Humidity Wind Precip. Elev Updated Type